sensor_id;sensor_type;location;lat;lon;timestamp;pressure;altitude;pressure_sealevel;temperature;humidity
46267;BME280;31998;48.798;15.066;2022-11-02T00:01:46;96266.41;;;9.87;100.00
46267;BME280;31998;48.798;15.066;2022-11-02T00:04:11;96257.53;;;9.81;100.00
46267;BME280;31998;48.798;15.066;2022-11-02T00:06:37;96274.19;;;9.98;100.00
46267;BME280;31998;48.798;15.066;2022-11-02T00:09:02;96269.34;;;10.00;100.00
46267;BME280;31998;48.798;15.066;2022-11-02T00:11:28;96259.66;;;9.84;100.00
46267;BME280;31998;48.798;15.066;2022-11-02T00:13:53;96265.03;;;9.84;100.00
46267;BME280;31998;48.798;15.066;2022-11-02T00:16:20;96278.50;;;10.04;100.00
46267;BME280;31998;48.798;15.066;2022-11-02T00:18:47;96268.53;;;9.90;100.00
46267;BME280;31998;48.798;15.066;2022-11-02T00:21:16;96268.00;;;9.83;100.00
46267;BME280;31998;48.798;15.066;2022-11-02T00:23:43;96279.56;;;9.93;100.00
46267;BME280;31998;48.798;15.066;2022-11-02T00:26:09;96264.25;;;9.89;100.00
46267;BME280;31998;48.798;15.066;2022-11-02T00:28:35;96280.63;;;10.02;100.00
46267;BME280;31998;48.798;15.066;2022-11-02T00:31:00;96270.69;;;9.88;100.00
46267;BME280;31998;48.798;15.066;2022-11-02T00:33:26;96273.09;;;9.89;100.00
46267;BME280;31998;48.798;15.066;2022-11-02T00:35:52;96277.97;;;9.87;100.00
46267;BME280;31998;48.798;15.066;2022-11-02T00:38:18;96280.66;;;9.82;100.00
46267;BME280;31998;48.798;15.066;2022-11-02T00:40:44;96283.88;;;9.89;100.00
46267;BME280;31998;48.798;15.066;2022-11-02T00:43:09;96277.69;;;9.94;100.00
46267;BME280;31998;48.798;15.066;2022-11-02T00:45:35;96282.25;;;9.98;100.00
46267;BME280;31998;48.798;15.066;2022-11-02T00:48:00;96285.72;;;10.04;100.00
46267;BME280;31998;48.798;15.066;2022-11-02T00:50:25;96279.53;;;10.03;100.00
46267;BME280;31998;48.798;15.066;2022-11-02T00:52:51;96272.56;;;9.97;100.00
46267;BME280;31998;48.798;15.066;2022-11-02T00:55:16;96287.06;;;10.12;100.00
46267;BME280;31998;48.798;15.066;2022-11-02T00:57:42;96290.84;;;10.11;100.00
46267;BME280;31998;48.798;15.066;2022-11-02T01:00:12;96288.16;;;10.05;100.00
46267;BME280;31998;48.798;15.066;2022-11-02T01:02:39;96280.63;;;9.97;100.00
46267;BME280;31998;48.798;15.066;2022-11-02T01:05:06;96279.56;;;9.93;100.00
46267;BME280;31998;48.798;15.066;2022-11-02T01:07:31;96288.16;;;10.00;100.00
46267;BME280;31998;48.798;15.066;2022-11-02T01:09:57;96274.19;;;9.88;100.00
46267;BME280;31998;48.798;15.066;2022-11-02T01:12:23;96294.06;;;10.02;100.00
46267;BME280;31998;48.798;15.066;2022-11-02T01:14:48;96275.81;;;9.99;100.00
46267;BME280;31998;48.798;15.066;2022-11-02T01:17:16;96278.22;;;10.06;100.00
46267;BME280;31998;48.798;15.066;2022-11-02T01:19:42;96270.13;;;10.11;100.00
46267;BME280;31998;48.798;15.066;2022-11-02T01:22:07;96278.44;;;10.15;100.00
46267;BME280;31998;48.798;15.066;2022-11-02T01:24:33;96274.44;;;10.17;100.00
46267;BME280;31998;48.798;15.066;2022-11-02T01:26:59;96282.78;;;10.05;100.00
46267;BME280;31998;48.798;15.066;2022-11-02T01:29:24;96277.69;;;9.94;100.00
46267;BME280;31998;48.798;15.066;2022-11-02T01:31:49;96273.09;;;9.84;100.00
46267;BME280;31998;48.798;15.066;2022-11-02T01:34:18;96294.63;;;9.89;100.00
46267;BME280;31998;48.798;15.066;2022-11-02T01:36:44;96277.97;;;9.87;100.00
46267;BME280;31998;48.798;15.066;2022-11-02T01:39:11;96285.47;;;9.90;100.00
46267;BME280;31998;48.798;15.066;2022-11-02T01:41:36;96277.44;;;9.85;100.00
46267;BME280;31998;48.798;15.066;2022-11-02T01:44:03;96280.91;;;9.91;100.00
46267;BME280;31998;48.798;15.066;2022-11-02T01:46:41;96268.81;;;9.83;100.00
46267;BME280;31998;48.798;15.066;2022-11-02T01:49:12;96266.41;;;9.82;100.00
46267;BME280;31998;48.798;15.066;2022-11-02T01:52:48;96280.66;;;9.77;100.00
46267;BME280;31998;48.798;15.066;2022-11-02T01:54:47;96271.25;;;9.59;100.00
46267;BME280;31998;48.798;15.066;2022-11-02T01:57:19;96268.81;;;9.42;100.00
46267;BME280;31998;48.798;15.066;2022-11-02T01:59:57;96278.47;;;9.38;100.00
46267;BME280;31998;48.798;15.066;2022-11-02T02:02:26;96291.66;;;9.45;100.00
46267;BME280;31998;48.798;15.066;2022-11-02T02:04:58;96283.88;;;9.48;100.00
46267;BME280;31998;48.798;15.066;2022-11-02T02:07:26;96293.03;;;9.52;100.00
46267;BME280;31998;48.798;15.066;2022-11-02T02:09:53;96282.28;;;9.47;100.00
46267;BME280;31998;48.798;15.066;2022-11-02T02:12:19;96279.81;;;9.31;100.00
46267;BME280;31998;48.798;15.066;2022-11-02T02:14:46;96290.84;;;9.29;100.00
46267;BME280;31998;48.798;15.066;2022-11-02T02:20:19;96294.28;;;9.04;100.00
46267;BME280;31998;48.798;15.066;2022-11-02T02:28:40;96287.03;;;9.10;100.00
46267;BME280;31998;48.798;15.066;2022-11-02T02:31:31;96297.28;;;9.13;100.00
46267;BME280;31998;48.798;15.066;2022-11-02T02:39:16;96302.47;;;8.67;100.00
46267;BME280;31998;48.798;15.066;2022-11-02T02:42:11;96284.66;;;8.46;100.00
46267;BME280;31998;48.798;15.066;2022-11-02T02:44:42;96298.06;;;8.40;100.00
46267;BME280;31998;48.798;15.066;2022-11-02T02:47:15;96303.16;;;8.37;100.00
46267;BME280;31998;48.798;15.066;2022-11-02T02:49:51;96304.41;;;8.29;100.00
46267;BME280;31998;48.798;15.066;2022-11-02T02:52:19;96294.72;;;8.23;100.00
46267;BME280;31998;48.798;15.066;2022-11-02T02:54:46;96287.69;;;8.12;100.00
46267;BME280;31998;48.798;15.066;2022-11-02T02:57:16;96283.03;;;7.97;100.00
46267;BME280;31998;48.798;15.066;2022-11-02T02:59:45;96278.09;;;7.79;100.00
46267;BME280;31998;48.798;15.066;2022-11-02T03:02:19;96286.66;;;7.81;100.00
46267;BME280;31998;48.798;15.066;2022-11-02T03:04:45;96291.22;;;7.80;100.00
46267;BME280;31998;48.798;15.066;2022-11-02T03:07:13;96295.25;;;7.78;100.00
46267;BME280;31998;48.798;15.066;2022-11-02T03:10:15;96292.25;;;7.74;100.00
46267;BME280;31998;48.798;15.066;2022-11-02T03:15:21;96300.50;;;7.68;100.00
46267;BME280;31998;48.798;15.066;2022-11-02T03:18:06;96303.19;;;7.68;100.00
46267;BME280;31998;48.798;15.066;2022-11-02T03:23:31;96307.75;;;7.67;100.00
46267;BME280;31998;48.798;15.066;2022-11-02T03:26:09;96291.50;;;7.47;100.00
46267;BME280;31998;48.798;15.066;2022-11-02T03:29:01;96294.53;;;7.28;100.00
46267;BME280;31998;48.798;15.066;2022-11-02T03:31:44;96296.41;;;7.01;100.00
46267;BME280;31998;48.798;15.066;2022-11-02T03:36:52;96304.72;;;6.77;100.00
46267;BME280;31998;48.798;15.066;2022-11-02T03:39:29;96309.84;;;6.79;100.00
46267;BME280;31998;48.798;15.066;2022-11-02T03:41:59;96302.28;;;6.76;100.00
46267;BME280;31998;48.798;15.066;2022-11-02T03:44:27;96312.81;;;6.83;100.00
46267;BME280;31998;48.798;15.066;2022-11-02T03:46:57;96310.72;;;6.85;100.00
46267;BME280;31998;48.798;15.066;2022-11-02T03:49:25;96323.84;;;6.86;100.00
46267;BME280;31998;48.798;15.066;2022-11-02T03:51:55;96307.28;;;6.67;100.00
46267;BME280;31998;48.798;15.066;2022-11-02T03:54:28;96326.69;;;6.58;100.00
46267;BME280;31998;48.798;15.066;2022-11-02T03:57:03;96314.66;;;6.38;100.00
46267;BME280;31998;48.798;15.066;2022-11-02T03:59:31;96319.16;;;6.33;100.00
46267;BME280;31998;48.798;15.066;2022-11-02T04:01:57;96307.25;;;6.23;100.00
46267;BME280;31998;48.798;15.066;2022-11-02T04:04:23;96315.78;;;6.20;100.00
46267;BME280;31998;48.798;15.066;2022-11-02T04:06:49;96301.53;;;6.15;100.00
46267;BME280;31998;48.798;15.066;2022-11-02T04:09:15;96303.81;;;6.06;100.00
46267;BME280;31998;48.798;15.066;2022-11-02T04:11:41;96298.25;;;6.08;100.00
46267;BME280;31998;48.798;15.066;2022-11-02T04:14:25;96310.13;;;6.17;100.00
46267;BME280;31998;48.798;15.066;2022-11-02T04:17:03;96317.25;;;6.11;100.00
46267;BME280;31998;48.798;15.066;2022-11-02T04:19:48;96320.97;;;6.10;100.00
46267;BME280;31998;48.798;15.066;2022-11-02T04:22:14;96324.19;;;6.12;100.00
46267;BME280;31998;48.798;15.066;2022-11-02T04:24:58;96308.03;;;6.02;100.00
46267;BME280;31998;48.798;15.066;2022-11-02T04:27:47;96326.66;;;6.14;100.00
46267;BME280;31998;48.798;15.066;2022-11-02T04:30:21;96319.84;;;6.06;100.00
46267;BME280;31998;48.798;15.066;2022-11-02T04:32:49;96308.34;;;5.89;100.00
46267;BME280;31998;48.798;15.066;2022-11-02T04:35:34;96319.38;;;5.76;100.00
46267;BME280;31998;48.798;15.066;2022-11-02T04:38:00;96325.59;;;5.64;100.00
46267;BME280;31998;48.798;15.066;2022-11-02T04:40:44;96332.94;;;5.57;100.00
46267;BME280;31998;48.798;15.066;2022-11-02T04:43:09;96328.75;;;5.61;100.00
46267;BME280;31998;48.798;15.066;2022-11-02T04:45:38;96330.03;;;5.59;100.00
46267;BME280;31998;48.798;15.066;2022-11-02T04:48:05;96311.84;;;5.56;100.00
46267;BME280;31998;48.798;15.066;2022-11-02T04:50:34;96321.78;;;5.60;100.00
46267;BME280;31998;48.798;15.066;2022-11-02T04:53:01;96319.50;;;5.35;100.00
46267;BME280;31998;48.798;15.066;2022-11-02T04:55:27;96317.38;;;5.21;100.00
46267;BME280;31998;48.798;15.066;2022-11-02T04:57:53;96320.28;;;5.19;100.00
46267;BME280;31998;48.798;15.066;2022-11-02T05:00:19;96333.47;;;5.26;100.00
46267;BME280;31998;48.798;15.066;2022-11-02T05:02:49;96341.97;;;5.23;100.00
46267;BME280;31998;48.798;15.066;2022-11-02T05:05:15;96345.22;;;5.25;100.00
46267;BME280;31998;48.798;15.066;2022-11-02T05:07:42;96341.03;;;5.29;100.00
46267;BME280;31998;48.798;15.066;2022-11-02T05:10:08;96342.03;;;5.28;100.00
46267;BME280;31998;48.798;15.066;2022-11-02T05:12:34;96344.72;;;5.28;100.00
46267;BME280;31998;48.798;15.066;2022-11-02T05:14:59;96332.72;;;5.13;100.00
46267;BME280;31998;48.798;15.066;2022-11-02T05:17:24;96331.16;;;5.01;100.00
46267;BME280;31998;48.798;15.066;2022-11-02T05:19:50;96337.25;;;4.84;100.00
46267;BME280;31998;48.798;15.066;2022-11-02T05:22:15;96339.00;;;4.79;100.00
46267;BME280;31998;48.798;15.066;2022-11-02T05:24:40;96349.44;;;4.80;100.00
46267;BME280;31998;48.798;15.066;2022-11-02T05:27:06;96358.84;;;4.83;100.00
46267;BME280;31998;48.798;15.066;2022-11-02T05:29:31;96356.59;;;4.92;100.00
46267;BME280;31998;48.798;15.066;2022-11-02T05:31:57;96360.34;;;5.07;100.00
46267;BME280;31998;48.798;15.066;2022-11-02T05:34:22;96357.94;;;5.06;100.00
46267;BME280;31998;48.798;15.066;2022-11-02T05:36:48;96348.69;;;4.97;100.00
46267;BME280;31998;48.798;15.066;2022-11-02T05:39:14;96361.13;;;4.91;100.00
46267;BME280;31998;48.798;15.066;2022-11-02T05:41:39;96351.78;;;4.77;100.00
46267;BME280;31998;48.798;15.066;2022-11-02T05:44:05;96345.03;;;4.74;100.00
46267;BME280;31998;48.798;15.066;2022-11-02T05:46:30;96358.13;;;4.76;100.00
46267;BME280;31998;48.798;15.066;2022-11-02T05:48:55;96359.09;;;4.70;100.00
46267;BME280;31998;48.798;15.066;2022-11-02T05:51:21;96367.13;;;4.58;100.00
46267;BME280;31998;48.798;15.066;2022-11-02T05:53:46;96374.88;;;4.59;100.00
46267;BME280;31998;48.798;15.066;2022-11-02T05:56:12;96350.09;;;4.47;100.00
46267;BME280;31998;48.798;15.066;2022-11-02T05:58:38;96365.25;;;4.58;100.00
46267;BME280;31998;48.798;15.066;2022-11-02T06:01:06;96366.31;;;4.57;100.00
46267;BME280;31998;48.798;15.066;2022-11-02T06:03:32;96383.94;;;4.58;100.00
46267;BME280;31998;48.798;15.066;2022-11-02T06:05:59;96379.53;;;4.52;100.00
46267;BME280;31998;48.798;15.066;2022-11-02T06:08:25;96378.09;;;4.61;100.00
46267;BME280;31998;48.798;15.066;2022-11-02T06:10:50;96380.16;;;4.83;100.00
46267;BME280;31998;48.798;15.066;2022-11-02T06:13:16;96386.97;;;4.90;100.00
46267;BME280;31998;48.798;15.066;2022-11-02T06:15:41;96392.56;;;4.89;100.00
46267;BME280;31998;48.798;15.066;2022-11-02T06:18:06;96388.72;;;4.85;100.00
46267;BME280;31998;48.798;15.066;2022-11-02T06:20:32;96397.31;;;4.87;100.00
46267;BME280;31998;48.798;15.066;2022-11-02T06:22:57;96404.34;;;5.05;100.00
46267;BME280;31998;48.798;15.066;2022-11-02T06:25:23;96416.69;;;5.23;100.00
46267;BME280;31998;48.798;15.066;2022-11-02T06:27:50;96420.41;;;5.50;100.00
46267;BME280;31998;48.798;15.066;2022-11-02T06:30:16;96396.47;;;5.55;100.00
46267;BME280;31998;48.798;15.066;2022-11-02T06:32:49;96410.94;;;5.59;100.00
46267;BME280;31998;48.798;15.066;2022-11-02T06:35:16;96416.63;;;5.80;100.00
46267;BME280;31998;48.798;15.066;2022-11-02T06:37:43;96415.19;;;5.89;100.00
46267;BME280;31998;48.798;15.066;2022-11-02T06:40:09;96401.28;;;5.87;100.00
46267;BME280;31998;48.798;15.066;2022-11-02T06:42:35;96412.44;;;5.84;100.00
46267;BME280;31998;48.798;15.066;2022-11-02T06:45:01;96417.38;;;5.75;100.00
46267;BME280;31998;48.798;15.066;2022-11-02T06:47:34;96411.44;;;5.73;100.00
46267;BME280;31998;48.798;15.066;2022-11-02T06:50:00;96413.59;;;5.88;100.00
46267;BME280;31998;48.798;15.066;2022-11-02T06:52:26;96412.16;;;5.97;100.00
46267;BME280;31998;48.798;15.066;2022-11-02T06:54:53;96416.44;;;6.15;100.00
46267;BME280;31998;48.798;15.066;2022-11-02T06:57:18;96410.69;;;6.23;100.00
46267;BME280;31998;48.798;15.066;2022-11-02T06:59:44;96418.13;;;6.38;100.00
46267;BME280;31998;48.798;15.066;2022-11-02T07:02:09;96425.25;;;6.49;100.00
46267;BME280;31998;48.798;15.066;2022-11-02T07:04:35;96415.75;;;6.58;100.00
46267;BME280;31998;48.798;15.066;2022-11-02T07:07:00;96405.13;;;6.63;100.00
46267;BME280;31998;48.798;15.066;2022-11-02T07:09:25;96421.13;;;6.80;100.00
46267;BME280;31998;48.798;15.066;2022-11-02T07:11:51;96412.06;;;6.81;100.00
46267;BME280;31998;48.798;15.066;2022-11-02T07:14:16;96407.66;;;6.92;100.00
46267;BME280;31998;48.798;15.066;2022-11-02T07:16:42;96425.56;;;7.13;100.00
46267;BME280;31998;48.798;15.066;2022-11-02T07:19:08;96425.47;;;7.30;100.00
46267;BME280;31998;48.798;15.066;2022-11-02T07:21:33;96416.31;;;7.48;100.00
46267;BME280;31998;48.798;15.066;2022-11-02T07:23:58;96409.75;;;7.60;100.00
46267;BME280;31998;48.798;15.066;2022-11-02T07:26:24;96416.16;;;7.86;100.00
46267;BME280;31998;48.798;15.066;2022-11-02T07:28:50;96396.91;;;7.95;100.00
46267;BME280;31998;48.798;15.066;2022-11-02T07:31:16;96413.22;;;8.20;100.00
46267;BME280;31998;48.798;15.066;2022-11-02T07:33:41;96415.47;;;8.33;100.00
46267;BME280;31998;48.798;15.066;2022-11-02T07:36:07;96409.72;;;8.52;100.00
46267;BME280;31998;48.798;15.066;2022-11-02T07:38:32;96408.75;;;8.73;100.00
46267;BME280;31998;48.798;15.066;2022-11-02T07:40:58;96401.09;;;8.87;100.00
46267;BME280;31998;48.798;15.066;2022-11-02T07:43:23;96397.91;;;9.00;100.00
46267;BME280;31998;48.798;15.066;2022-11-02T07:45:48;96399.34;;;9.23;100.00
46267;BME280;31998;48.798;15.066;2022-11-02T07:48:14;96395.13;;;9.52;100.00
46267;BME280;31998;48.798;15.066;2022-11-02T07:50:39;96400.56;;;9.93;100.00
46267;BME280;31998;48.798;15.066;2022-11-02T07:53:05;96399.53;;;10.25;100.00
46267;BME280;31998;48.798;15.066;2022-11-02T07:55:30;96406.75;;;10.55;100.00
46267;BME280;31998;48.798;15.066;2022-11-02T07:57:58;96413.41;;;10.98;100.00
46267;BME280;31998;48.798;15.066;2022-11-02T08:00:25;96407.34;;;11.32;100.00
46267;BME280;31998;48.798;15.066;2022-11-02T08:02:58;96415.47;;;11.81;100.00
46267;BME280;31998;48.798;15.066;2022-11-02T08:05:24;96425.38;;;12.25;100.00
46267;BME280;31998;48.798;15.066;2022-11-02T08:08:00;96409.59;;;12.42;100.00
46267;BME280;31998;48.798;15.066;2022-11-02T08:10:27;96408.06;;;12.65;100.00
46267;BME280;31998;48.798;15.066;2022-11-02T08:12:53;96403.66;;;13.22;100.00
46267;BME280;31998;48.798;15.066;2022-11-02T08:15:19;96366.34;;;13.24;100.00
46267;BME280;31998;48.798;15.066;2022-11-02T08:17:45;96366.47;;;13.57;100.00
46267;BME280;31998;48.798;15.066;2022-11-02T08:20:10;96349.75;;;13.69;100.00
46267;BME280;31998;48.798;15.066;2022-11-02T08:22:37;96348.81;;;13.78;100.00
46267;BME280;31998;48.798;15.066;2022-11-02T08:25:03;96363.53;;;13.72;100.00
46267;BME280;31998;48.798;15.066;2022-11-02T08:27:28;96352.78;;;13.67;100.00
46267;BME280;31998;48.798;15.066;2022-11-02T08:29:54;96367.09;;;13.87;100.00
46267;BME280;31998;48.798;15.066;2022-11-02T08:32:19;96362.28;;;13.83;100.00
46267;BME280;31998;48.798;15.066;2022-11-02T08:34:45;96367.94;;;14.01;100.00
46267;BME280;31998;48.798;15.066;2022-11-02T08:37:10;96359.75;;;14.06;100.00
46267;BME280;31998;48.798;15.066;2022-11-02T08:39:35;96350.97;;;14.14;100.00
46267;BME280;31998;48.798;15.066;2022-11-02T08:42:01;96359.94;;;14.28;100.00
46267;BME280;31998;48.798;15.066;2022-11-02T08:44:26;96359.75;;;14.06;100.00
46267;BME280;31998;48.798;15.066;2022-11-02T08:46:52;96361.97;;;14.36;100.00
46267;BME280;31998;48.798;15.066;2022-11-02T08:49:18;96345.22;;;14.34;100.00
46267;BME280;31998;48.798;15.066;2022-11-02T08:51:45;96370.34;;;14.54;100.00
46267;BME280;31998;48.798;15.066;2022-11-02T08:54:11;96363.44;;;14.48;100.00
46267;BME280;31998;48.798;15.066;2022-11-02T08:56:37;96355.34;;;14.75;100.00
46267;BME280;31998;48.798;15.066;2022-11-02T08:59:02;96356.66;;;14.78;100.00
46267;BME280;31998;48.798;15.066;2022-11-02T09:01:27;96356.94;;;15.17;100.00
46267;BME280;31998;48.798;15.066;2022-11-02T09:03:53;96356.06;;;15.08;100.00
46267;BME280;31998;48.798;15.066;2022-11-02T09:06:18;96360.97;;;15.20;100.00
46267;BME280;31998;48.798;15.066;2022-11-02T09:08:43;96360.75;;;15.30;100.00
46267;BME280;31998;48.798;15.066;2022-11-02T09:11:09;96355.25;;;15.22;100.00
46267;BME280;31998;48.798;15.066;2022-11-02T09:13:36;96358.13;;;15.66;100.00
46267;BME280;31998;48.798;15.066;2022-11-02T09:16:02;96356.06;;;15.58;100.00
46267;BME280;31998;48.798;15.066;2022-11-02T09:18:27;96361.84;;;15.43;100.00
46267;BME280;31998;48.798;15.066;2022-11-02T09:20:53;96355.44;;;15.11;100.00
46267;BME280;31998;48.798;15.066;2022-11-02T09:23:20;96369.25;;;15.51;100.00
46267;BME280;31998;48.798;15.066;2022-11-02T09:25:45;96364.84;;;15.69;100.00
46267;BME280;31998;48.798;15.066;2022-11-02T09:28:11;96366.16;;;15.71;100.00
46267;BME280;31998;48.798;15.066;2022-11-02T09:30:38;96388.00;;;15.89;100.00
46267;BME280;31998;48.798;15.066;2022-11-02T09:33:04;96370.22;;;15.83;100.00
46267;BME280;31998;48.798;15.066;2022-11-02T09:35:33;96380.66;;;15.89;100.00
46267;BME280;31998;48.798;15.066;2022-11-02T09:37:58;96377.66;;;15.77;100.00
46267;BME280;31998;48.798;15.066;2022-11-02T09:40:30;96385.38;;;15.84;100.00
46267;BME280;31998;48.798;15.066;2022-11-02T09:43:49;96393.00;;;15.95;100.00
46267;BME280;31998;48.798;15.066;2022-11-02T09:46:00;96393.34;;;15.80;100.00
46267;BME280;31998;48.798;15.066;2022-11-02T09:48:39;96393.47;;;15.61;100.00
46267;BME280;31998;48.798;15.066;2022-11-02T09:51:16;96402.72;;;15.74;100.00
46267;BME280;31998;48.798;15.066;2022-11-02T09:53:46;96402.94;;;15.64;100.00
46267;BME280;31998;48.798;15.066;2022-11-02T09:56:17;96393.69;;;15.37;100.00
46267;BME280;31998;48.798;15.066;2022-11-02T09:58:52;96397.50;;;15.64;100.00
46267;BME280;31998;48.798;15.066;2022-11-02T10:01:36;96397.31;;;15.96;100.00
46267;BME280;31998;48.798;15.066;2022-11-02T10:06:43;96401.28;;;16.35;100.00
46267;BME280;31998;48.798;15.066;2022-11-02T10:09:19;96382.66;;;15.97;100.00
46267;BME280;31998;48.798;15.066;2022-11-02T10:14:38;96382.59;;;16.34;100.00
46267;BME280;31998;48.798;15.066;2022-11-02T10:17:21;96388.94;;;16.51;100.00
46267;BME280;31998;48.798;15.066;2022-11-02T10:19:55;96383.25;;;16.62;100.00
46267;BME280;31998;48.798;15.066;2022-11-02T10:22:25;96389.03;;;16.69;100.00
46267;BME280;31998;48.798;15.066;2022-11-02T10:24:53;96376.78;;;16.71;100.00
46267;BME280;31998;48.798;15.066;2022-11-02T10:27:24;96400.44;;;16.48;100.00
46267;BME280;31998;48.798;15.066;2022-11-02T10:30:23;96407.97;;;16.29;100.00
46267;BME280;31998;48.798;15.066;2022-11-02T10:32:51;96398.22;;;16.28;100.00
46267;BME280;31998;48.798;15.066;2022-11-02T10:35:35;96390.63;;;16.39;100.00
46267;BME280;31998;48.798;15.066;2022-11-02T10:46:40;96397.22;;;16.46;100.00
46267;BME280;31998;48.798;15.066;2022-11-02T10:49:13;96394.25;;;16.57;100.00
46267;BME280;31998;48.798;15.066;2022-11-02T10:51:42;96397.72;;;16.71;100.00
46267;BME280;31998;48.798;15.066;2022-11-02T10:54:12;96372.97;;;16.81;100.00
46267;BME280;31998;48.798;15.066;2022-11-02T10:56:40;96379.88;;;16.87;100.00
46267;BME280;31998;48.798;15.066;2022-11-02T10:59:13;96381.28;;;16.76;100.00
46267;BME280;31998;48.798;15.066;2022-11-02T11:04:27;96370.09;;;17.08;100.00
46267;BME280;31998;48.798;15.066;2022-11-02T11:06:54;96369.44;;;17.12;100.00
46267;BME280;31998;48.798;15.066;2022-11-02T11:09:25;96376.25;;;17.00;100.00
46267;BME280;31998;48.798;15.066;2022-11-02T11:12:01;96376.09;;;16.97;100.00
46267;BME280;31998;48.798;15.066;2022-11-02T11:14:28;96372.97;;;17.21;100.00
46267;BME280;31998;48.798;15.066;2022-11-02T11:16:57;96363.72;;;17.22;100.00
46267;BME280;31998;48.798;15.066;2022-11-02T11:19:27;96368.50;;;17.16;100.00
46267;BME280;31998;48.798;15.066;2022-11-02T11:21:54;96369.88;;;17.05;100.00
46267;BME280;31998;48.798;15.066;2022-11-02T11:29:45;96369.03;;;16.65;100.00
46267;BME280;31998;48.798;15.066;2022-11-02T11:32:15;96354.47;;;16.61;100.00
46267;BME280;31998;48.798;15.066;2022-11-02T11:34:42;96355.72;;;16.54;100.00
46267;BME280;31998;48.798;15.066;2022-11-02T11:37:13;96363.25;;;16.89;100.00
46267;BME280;31998;48.798;15.066;2022-11-02T11:39:43;96353.31;;;17.15;100.00
46267;BME280;31998;48.798;15.066;2022-11-02T11:42:16;96343.16;;;16.98;100.00
46267;BME280;31998;48.798;15.066;2022-11-02T11:44:45;96344.41;;;16.92;100.00
46267;BME280;31998;48.798;15.066;2022-11-02T11:47:12;96350.84;;;16.96;100.00
46267;BME280;31998;48.798;15.066;2022-11-02T11:49:45;96343.78;;;16.95;100.00
46267;BME280;31998;48.798;15.066;2022-11-02T11:52:17;96361.94;;;16.55;100.00
46267;BME280;31998;48.798;15.066;2022-11-02T11:54:52;96370.66;;;16.66;100.00
46267;BME280;31998;48.798;15.066;2022-11-02T11:57:32;96373.63;;;16.55;100.00
46267;BME280;31998;48.798;15.066;2022-11-02T11:59:59;96359.88;;;16.29;100.00
46267;BME280;31998;48.798;15.066;2022-11-02T12:02:32;96371.44;;;16.13;100.00
46267;BME280;31998;48.798;15.066;2022-11-02T12:05:17;96367.38;;;16.24;100.00
46267;BME280;31998;48.798;15.066;2022-11-02T12:13:12;96359.41;;;16.59;100.00
46267;BME280;31998;48.798;15.066;2022-11-02T12:16:02;96361.22;;;16.63;100.00
46267;BME280;31998;48.798;15.066;2022-11-02T12:21:20;96357.97;;;16.84;100.00
46267;BME280;31998;48.798;15.066;2022-11-02T12:29:26;96360.09;;;16.42;100.00
46267;BME280;31998;48.798;15.066;2022-11-02T12:41:06;96353.84;;;16.64;100.00
46267;BME280;31998;48.798;15.066;2022-11-02T12:43:45;96359.22;;;16.55;100.00
46267;BME280;31998;48.798;15.066;2022-11-02T12:46:30;96363.94;;;16.63;100.00
46267;BME280;31998;48.798;15.066;2022-11-02T12:49:12;96361.06;;;16.68;100.00
46267;BME280;31998;48.798;15.066;2022-11-02T12:57:11;96346.81;;;16.63;100.00
46267;BME280;31998;48.798;15.066;2022-11-02T12:59:39;96349.38;;;16.68;100.00
46267;BME280;31998;48.798;15.066;2022-11-02T13:05:01;96344.88;;;16.94;100.00
46267;BME280;31998;48.798;15.066;2022-11-02T13:07:35;96347.16;;;17.01;100.00
46267;BME280;31998;48.798;15.066;2022-11-02T13:12:40;96350.41;;;16.49;100.00
46267;BME280;31998;48.798;15.066;2022-11-02T13:15:14;96353.03;;;16.10;100.00
46267;BME280;31998;48.798;15.066;2022-11-02T13:17:44;96350.78;;;15.89;100.00
46267;BME280;31998;48.798;15.066;2022-11-02T13:20:20;96368.69;;;15.90;100.00
46267;BME280;31998;48.798;15.066;2022-11-02T13:22:53;96364.75;;;15.96;100.00
46267;BME280;31998;48.798;15.066;2022-11-02T13:25:30;96367.03;;;16.03;100.00
46267;BME280;31998;48.798;15.066;2022-11-02T13:28:02;96330.56;;;15.73;100.00
46267;BME280;31998;48.798;15.066;2022-11-02T13:30:30;96362.75;;;15.88;100.00
46267;BME280;31998;48.798;15.066;2022-11-02T13:33:02;96366.38;;;15.84;100.00
46267;BME280;31998;48.798;15.066;2022-11-02T13:35:33;96368.03;;;15.71;100.00
46267;BME280;31998;48.798;15.066;2022-11-02T13:38:14;96373.59;;;15.66;100.00
46267;BME280;31998;48.798;15.066;2022-11-02T13:40:54;96370.56;;;15.67;100.00
46267;BME280;31998;48.798;15.066;2022-11-02T13:53:58;96379.34;;;15.23;100.00
46267;BME280;31998;48.798;15.066;2022-11-02T13:56:26;96374.81;;;15.18;100.00
46267;BME280;31998;48.798;15.066;2022-11-02T13:58:59;96379.66;;;15.08;100.00
46267;BME280;31998;48.798;15.066;2022-11-02T14:01:29;96381.25;;;14.95;100.00
46267;BME280;31998;48.798;15.066;2022-11-02T14:04:05;96380.44;;;14.81;100.00
46267;BME280;31998;48.798;15.066;2022-11-02T14:06:41;96385.06;;;14.80;100.00
46267;BME280;31998;48.798;15.066;2022-11-02T14:09:09;96375.63;;;14.78;100.00
46267;BME280;31998;48.798;15.066;2022-11-02T14:22:06;96366.69;;;14.77;100.00
46267;BME280;31998;48.798;15.066;2022-11-02T14:40:19;96380.31;;;14.39;100.00
46267;BME280;31998;48.798;15.066;2022-11-02T14:43:01;96372.19;;;14.39;100.00
46267;BME280;31998;48.798;15.066;2022-11-02T14:45:47;96368.25;;;14.32;100.00
46267;BME280;31998;48.798;15.066;2022-11-02T14:48:16;96372.09;;;14.31;100.00
46267;BME280;31998;48.798;15.066;2022-11-02T14:50:59;96363.47;;;14.29;100.00
46267;BME280;31998;48.798;15.066;2022-11-02T14:53:31;96362.13;;;14.26;100.00